sensor_id;sensor_type;location;lat;lon;timestamp;P1;durP1;ratioP1;P2;durP2;ratioP2
55015;SDS011;40919;43.236;21.590;2023-05-18T00:00:00;4.30;;;2.75;;
55015;SDS011;40919;43.236;21.590;2023-05-18T00:02:26;5.15;;;2.80;;
55015;SDS011;40919;43.236;21.590;2023-05-18T00:04:52;4.47;;;2.42;;
55015;SDS011;40919;43.236;21.590;2023-05-18T00:07:18;5.65;;;3.30;;
55015;SDS011;40919;43.236;21.590;2023-05-18T00:09:43;8.30;;;3.67;;
55015;SDS011;40919;43.236;21.590;2023-05-18T00:12:10;6.63;;;3.40;;
55015;SDS011;40919;43.236;21.590;2023-05-18T00:14:36;6.22;;;3.08;;
55015;SDS011;40919;43.236;21.590;2023-05-18T00:17:05;5.60;;;3.60;;
55015;SDS011;40919;43.236;21.590;2023-05-18T00:19:31;5.90;;;3.35;;
55015;SDS011;40919;43.236;21.590;2023-05-18T00:21:58;5.78;;;3.20;;
55015;SDS011;40919;43.236;21.590;2023-05-18T00:24:26;7.43;;;4.07;;
55015;SDS011;40919;43.236;21.590;2023-05-18T00:26:52;6.00;;;3.70;;
55015;SDS011;40919;43.236;21.590;2023-05-18T00:29:18;7.28;;;3.67;;
55015;SDS011;40919;43.236;21.590;2023-05-18T00:31:43;6.57;;;3.50;;
55015;SDS011;40919;43.236;21.590;2023-05-18T00:34:10;5.95;;;3.67;;
55015;SDS011;40919;43.236;21.590;2023-05-18T00:36:37;6.43;;;3.72;;
55015;SDS011;40919;43.236;21.590;2023-05-18T00:39:04;5.65;;;3.38;;
55015;SDS011;40919;43.236;21.590;2023-05-18T00:41:31;8.85;;;3.30;;
55015;SDS011;40919;43.236;21.590;2023-05-18T00:44:01;8.07;;;3.83;;
55015;SDS011;40919;43.236;21.590;2023-05-18T00:46:28;5.85;;;3.83;;
55015;SDS011;40919;43.236;21.590;2023-05-18T00:48:55;6.47;;;3.70;;
55015;SDS011;40919;43.236;21.590;2023-05-18T00:51:21;5.75;;;3.45;;
55015;SDS011;40919;43.236;21.590;2023-05-18T00:53:49;8.07;;;3.30;;
55015;SDS011;40919;43.236;21.590;2023-05-18T00:56:16;5.65;;;3.30;;
55015;SDS011;40919;43.236;21.590;2023-05-18T00:58:43;6.53;;;3.72;;
55015;SDS011;40919;43.236;21.590;2023-05-18T01:01:10;5.07;;;3.40;;
55015;SDS011;40919;43.236;21.590;2023-05-18T01:03:36;6.82;;;4.05;;
55015;SDS011;40919;43.236;21.590;2023-05-18T01:06:06;8.90;;;4.03;;
55015;SDS011;40919;43.236;21.590;2023-05-18T01:08:33;6.68;;;4.10;;
55015;SDS011;40919;43.236;21.590;2023-05-18T01:25:40;6.75;;;3.90;;
55015;SDS011;40919;43.236;21.590;2023-05-18T01:28:27;8.93;;;4.05;;
55015;SDS011;40919;43.236;21.590;2023-05-18T01:30:56;8.63;;;4.50;;
55015;SDS011;40919;43.236;21.590;2023-05-18T01:33:23;6.25;;;4.30;;
55015;SDS011;40919;43.236;21.590;2023-05-18T01:35:49;6.10;;;5.07;;
55015;SDS011;40919;43.236;21.590;2023-05-18T01:38:20;7.70;;;4.90;;
55015;SDS011;40919;43.236;21.590;2023-05-18T01:41:02;6.45;;;5.15;;
55015;SDS011;40919;43.236;21.590;2023-05-18T01:43:52;7.70;;;5.97;;
55015;SDS011;40919;43.236;21.590;2023-05-18T01:46:47;7.07;;;5.35;;
55015;SDS011;40919;43.236;21.590;2023-05-18T01:52:01;7.68;;;5.10;;
55015;SDS011;40919;43.236;21.590;2023-05-18T01:54:43;7.45;;;5.63;;
55015;SDS011;40919;43.236;21.590;2023-05-18T01:57:10;7.78;;;6.18;;
55015;SDS011;40919;43.236;21.590;2023-05-18T01:59:37;10.35;;;5.50;;
55015;SDS011;40919;43.236;21.590;2023-05-18T02:02:03;7.18;;;5.97;;
55015;SDS011;40919;43.236;21.590;2023-05-18T02:04:30;8.32;;;6.10;;
55015;SDS011;40919;43.236;21.590;2023-05-18T02:06:56;9.05;;;6.35;;
55015;SDS011;40919;43.236;21.590;2023-05-18T02:09:22;8.05;;;6.15;;
55015;SDS011;40919;43.236;21.590;2023-05-18T02:11:48;8.82;;;5.57;;
55015;SDS011;40919;43.236;21.590;2023-05-18T02:14:14;9.27;;;6.38;;
55015;SDS011;40919;43.236;21.590;2023-05-18T02:16:40;9.43;;;5.80;;
55015;SDS011;40919;43.236;21.590;2023-05-18T02:19:06;8.10;;;5.28;;
55015;SDS011;40919;43.236;21.590;2023-05-18T02:21:32;7.82;;;5.68;;
55015;SDS011;40919;43.236;21.590;2023-05-18T02:23:59;7.28;;;5.95;;
55015;SDS011;40919;43.236;21.590;2023-05-18T02:26:25;6.55;;;5.72;;
55015;SDS011;40919;43.236;21.590;2023-05-18T02:28:51;9.00;;;6.00;;
55015;SDS011;40919;43.236;21.590;2023-05-18T02:31:17;6.78;;;5.80;;
55015;SDS011;40919;43.236;21.590;2023-05-18T02:33:43;10.68;;;5.93;;
55015;SDS011;40919;43.236;21.590;2023-05-18T02:36:10;9.52;;;5.47;;
55015;SDS011;40919;43.236;21.590;2023-05-18T02:38:38;7.85;;;5.82;;
55015;SDS011;40919;43.236;21.590;2023-05-18T02:41:07;8.65;;;6.43;;
55015;SDS011;40919;43.236;21.590;2023-05-18T02:43:34;7.60;;;5.65;;
55015;SDS011;40919;43.236;21.590;2023-05-18T02:46:00;7.13;;;5.70;;
55015;SDS011;40919;43.236;21.590;2023-05-18T02:48:26;8.77;;;5.80;;
55015;SDS011;40919;43.236;21.590;2023-05-18T02:50:52;6.90;;;5.43;;
55015;SDS011;40919;43.236;21.590;2023-05-18T02:53:19;7.13;;;5.78;;
55015;SDS011;40919;43.236;21.590;2023-05-18T02:55:45;6.88;;;5.53;;
55015;SDS011;40919;43.236;21.590;2023-05-18T02:58:13;8.38;;;5.95;;
55015;SDS011;40919;43.236;21.590;2023-05-18T03:00:39;7.88;;;5.93;;
55015;SDS011;40919;43.236;21.590;2023-05-18T03:03:05;6.93;;;4.97;;
55015;SDS011;40919;43.236;21.590;2023-05-18T03:05:35;8.10;;;5.93;;
55015;SDS011;40919;43.236;21.590;2023-05-18T03:08:01;9.32;;;5.93;;
55015;SDS011;40919;43.236;21.590;2023-05-18T03:10:27;8.90;;;5.53;;
55015;SDS011;40919;43.236;21.590;2023-05-18T03:12:53;8.85;;;6.57;;
55015;SDS011;40919;43.236;21.590;2023-05-18T03:15:19;9.05;;;5.68;;
55015;SDS011;40919;43.236;21.590;2023-05-18T03:17:45;7.25;;;6.10;;
55015;SDS011;40919;43.236;21.590;2023-05-18T03:20:11;7.05;;;5.80;;
55015;SDS011;40919;43.236;21.590;2023-05-18T03:22:40;6.75;;;5.88;;
55015;SDS011;40919;43.236;21.590;2023-05-18T03:25:06;6.93;;;5.95;;
55015;SDS011;40919;43.236;21.590;2023-05-18T03:27:32;9.63;;;6.47;;
55015;SDS011;40919;43.236;21.590;2023-05-18T03:29:58;8.68;;;6.97;;
55015;SDS011;40919;43.236;21.590;2023-05-18T03:32:24;10.65;;;6.85;;
55015;SDS011;40919;43.236;21.590;2023-05-18T03:34:52;7.60;;;6.25;;
55015;SDS011;40919;43.236;21.590;2023-05-18T03:37:19;11.02;;;6.07;;
55015;SDS011;40919;43.236;21.590;2023-05-18T03:39:45;8.73;;;7.05;;
55015;SDS011;40919;43.236;21.590;2023-05-18T03:42:11;10.55;;;7.20;;
55015;SDS011;40919;43.236;21.590;2023-05-18T03:44:37;10.10;;;7.25;;
55015;SDS011;40919;43.236;21.590;2023-05-18T03:47:03;9.45;;;7.20;;
55015;SDS011;40919;43.236;21.590;2023-05-18T03:49:29;9.18;;;7.53;;
55015;SDS011;40919;43.236;21.590;2023-05-18T03:51:57;10.40;;;8.40;;
55015;SDS011;40919;43.236;21.590;2023-05-18T03:54:23;9.98;;;7.47;;
55015;SDS011;40919;43.236;21.590;2023-05-18T03:56:49;10.93;;;7.07;;
55015;SDS011;40919;43.236;21.590;2023-05-18T03:59:15;9.80;;;7.43;;
55015;SDS011;40919;43.236;21.590;2023-05-18T04:01:42;10.13;;;7.25;;
55015;SDS011;40919;43.236;21.590;2023-05-18T04:04:08;9.35;;;6.55;;
55015;SDS011;40919;43.236;21.590;2023-05-18T04:06:41;8.02;;;6.70;;
55015;SDS011;40919;43.236;21.590;2023-05-18T04:09:11;9.38;;;6.93;;
55015;SDS011;40919;43.236;21.590;2023-05-18T04:11:39;8.30;;;7.18;;
55015;SDS011;40919;43.236;21.590;2023-05-18T04:14:06;8.00;;;6.63;;
55015;SDS011;40919;43.236;21.590;2023-05-18T04:16:35;7.95;;;6.78;;
55015;SDS011;40919;43.236;21.590;2023-05-18T04:19:01;7.85;;;6.78;;
55015;SDS011;40919;43.236;21.590;2023-05-18T04:21:28;7.80;;;6.72;;
55015;SDS011;40919;43.236;21.590;2023-05-18T04:24:00;12.18;;;7.97;;
55015;SDS011;40919;43.236;21.590;2023-05-18T04:26:29;11.43;;;6.78;;
55015;SDS011;40919;43.236;21.590;2023-05-18T04:28:56;10.35;;;6.57;;
55015;SDS011;40919;43.236;21.590;2023-05-18T04:31:27;8.73;;;7.22;;
55015;SDS011;40919;43.236;21.590;2023-05-18T04:33:56;7.28;;;6.45;;
55015;SDS011;40919;43.236;21.590;2023-05-18T04:36:24;9.68;;;6.50;;
55015;SDS011;40919;43.236;21.590;2023-05-18T04:38:54;11.05;;;6.38;;
55015;SDS011;40919;43.236;21.590;2023-05-18T04:41:23;8.57;;;5.93;;
55015;SDS011;40919;43.236;21.590;2023-05-18T04:43:49;9.30;;;6.13;;
55015;SDS011;40919;43.236;21.590;2023-05-18T04:46:16;8.05;;;6.63;;
55015;SDS011;40919;43.236;21.590;2023-05-18T04:48:42;7.45;;;6.22;;
55015;SDS011;40919;43.236;21.590;2023-05-18T04:51:08;8.48;;;6.32;;
55015;SDS011;40919;43.236;21.590;2023-05-18T04:53:34;6.57;;;5.35;;
55015;SDS011;40919;43.236;21.590;2023-05-18T04:56:03;8.27;;;5.18;;
55015;SDS011;40919;43.236;21.590;2023-05-18T04:58:29;8.80;;;6.95;;
55015;SDS011;40919;43.236;21.590;2023-05-18T05:00:55;6.82;;;5.43;;
55015;SDS011;40919;43.236;21.590;2023-05-18T05:03:21;7.28;;;6.13;;
55015;SDS011;40919;43.236;21.590;2023-05-18T05:05:47;7.95;;;5.40;;
55015;SDS011;40919;43.236;21.590;2023-05-18T05:08:14;8.10;;;5.28;;
55015;SDS011;40919;43.236;21.590;2023-05-18T05:10:40;8.05;;;5.28;;
55015;SDS011;40919;43.236;21.590;2023-05-18T05:13:06;9.00;;;5.10;;
55015;SDS011;40919;43.236;21.590;2023-05-18T05:15:34;8.00;;;5.47;;
55015;SDS011;40919;43.236;21.590;2023-05-18T05:18:00;6.55;;;5.40;;
55015;SDS011;40919;43.236;21.590;2023-05-18T05:20:26;7.18;;;5.53;;
55015;SDS011;40919;43.236;21.590;2023-05-18T05:22:52;8.02;;;5.35;;
55015;SDS011;40919;43.236;21.590;2023-05-18T05:25:19;8.38;;;5.63;;
55015;SDS011;40919;43.236;21.590;2023-05-18T05:27:45;9.70;;;5.90;;
55015;SDS011;40919;43.236;21.590;2023-05-18T05:30:11;6.93;;;5.38;;
55015;SDS011;40919;43.236;21.590;2023-05-18T05:32:37;8.95;;;6.45;;
55015;SDS011;40919;43.236;21.590;2023-05-18T05:35:03;8.23;;;6.68;;
55015;SDS011;40919;43.236;21.590;2023-05-18T05:37:29;8.77;;;6.93;;
55015;SDS011;40919;43.236;21.590;2023-05-18T05:39:55;8.60;;;6.15;;
55015;SDS011;40919;43.236;21.590;2023-05-18T05:42:21;7.22;;;6.30;;
55015;SDS011;40919;43.236;21.590;2023-05-18T05:44:47;7.75;;;5.30;;
55015;SDS011;40919;43.236;21.590;2023-05-18T05:47:13;7.82;;;5.80;;
55015;SDS011;40919;43.236;21.590;2023-05-18T05:49:39;10.48;;;7.05;;
55015;SDS011;40919;43.236;21.590;2023-05-18T05:52:05;9.13;;;6.35;;
55015;SDS011;40919;43.236;21.590;2023-05-18T05:54:31;9.85;;;8.07;;
55015;SDS011;40919;43.236;21.590;2023-05-18T05:56:57;14.25;;;9.45;;
55015;SDS011;40919;43.236;21.590;2023-05-18T05:59:23;17.10;;;9.95;;
55015;SDS011;40919;43.236;21.590;2023-05-18T06:01:49;19.42;;;13.07;;
55015;SDS011;40919;43.236;21.590;2023-05-18T06:04:15;23.23;;;16.65;;
55015;SDS011;40919;43.236;21.590;2023-05-18T06:06:41;15.88;;;11.15;;
55015;SDS011;40919;43.236;21.590;2023-05-18T06:09:08;12.10;;;9.60;;
55015;SDS011;40919;43.236;21.590;2023-05-18T06:11:34;10.23;;;8.65;;
55015;SDS011;40919;43.236;21.590;2023-05-18T06:14:00;9.30;;;6.97;;
55015;SDS011;40919;43.236;21.590;2023-05-18T06:16:26;8.85;;;6.45;;
55015;SDS011;40919;43.236;21.590;2023-05-18T06:18:52;7.53;;;5.22;;
55015;SDS011;40919;43.236;21.590;2023-05-18T06:21:18;8.85;;;6.47;;
55015;SDS011;40919;43.236;21.590;2023-05-18T06:23:44;7.28;;;5.90;;
55015;SDS011;40919;43.236;21.590;2023-05-18T06:26:09;8.82;;;5.30;;
55015;SDS011;40919;43.236;21.590;2023-05-18T06:28:35;8.02;;;6.35;;
55015;SDS011;40919;43.236;21.590;2023-05-18T06:31:03;9.15;;;6.88;;
55015;SDS011;40919;43.236;21.590;2023-05-18T06:33:29;7.82;;;6.20;;
55015;SDS011;40919;43.236;21.590;2023-05-18T06:35:58;12.07;;;8.77;;
55015;SDS011;40919;43.236;21.590;2023-05-18T06:38:24;13.98;;;9.63;;
55015;SDS011;40919;43.236;21.590;2023-05-18T06:40:50;13.15;;;9.45;;
55015;SDS011;40919;43.236;21.590;2023-05-18T06:43:16;12.65;;;9.75;;
55015;SDS011;40919;43.236;21.590;2023-05-18T06:45:42;11.38;;;8.35;;
55015;SDS011;40919;43.236;21.590;2023-05-18T06:48:08;20.30;;;12.48;;
55015;SDS011;40919;43.236;21.590;2023-05-18T06:50:34;54.50;;;35.90;;
55015;SDS011;40919;43.236;21.590;2023-05-18T06:53:01;42.15;;;28.38;;
55015;SDS011;40919;43.236;21.590;2023-05-18T06:55:28;47.42;;;32.28;;
55015;SDS011;40919;43.236;21.590;2023-05-18T06:57:54;39.42;;;29.00;;
55015;SDS011;40919;43.236;21.590;2023-05-18T07:00:22;42.15;;;34.22;;
55015;SDS011;40919;43.236;21.590;2023-05-18T07:02:48;16.20;;;14.48;;
55015;SDS011;40919;43.236;21.590;2023-05-18T07:05:14;14.15;;;12.23;;
55015;SDS011;40919;43.236;21.590;2023-05-18T07:07:41;13.93;;;11.98;;
55015;SDS011;40919;43.236;21.590;2023-05-18T07:10:07;12.60;;;10.90;;
55015;SDS011;40919;43.236;21.590;2023-05-18T07:12:33;12.93;;;11.60;;
55015;SDS011;40919;43.236;21.590;2023-05-18T07:14:59;10.65;;;9.55;;
55015;SDS011;40919;43.236;21.590;2023-05-18T07:17:25;9.70;;;7.95;;
55015;SDS011;40919;43.236;21.590;2023-05-18T07:19:51;9.95;;;7.70;;
55015;SDS011;40919;43.236;21.590;2023-05-18T07:22:17;10.55;;;7.13;;
55015;SDS011;40919;43.236;21.590;2023-05-18T07:24:43;7.10;;;6.10;;
55015;SDS011;40919;43.236;21.590;2023-05-18T07:27:09;9.35;;;5.88;;
55015;SDS011;40919;43.236;21.590;2023-05-18T07:29:35;9.77;;;7.72;;
55015;SDS011;40919;43.236;21.590;2023-05-18T07:32:01;7.78;;;5.78;;
55015;SDS011;40919;43.236;21.590;2023-05-18T07:34:27;7.88;;;6.63;;
55015;SDS011;40919;43.236;21.590;2023-05-18T07:36:53;7.53;;;6.10;;
55015;SDS011;40919;43.236;21.590;2023-05-18T07:39:19;8.88;;;5.75;;
55015;SDS011;40919;43.236;21.590;2023-05-18T07:41:52;8.18;;;6.05;;
55015;SDS011;40919;43.236;21.590;2023-05-18T07:44:18;8.98;;;6.38;;
55015;SDS011;40919;43.236;21.590;2023-05-18T07:46:44;9.95;;;6.82;;
55015;SDS011;40919;43.236;21.590;2023-05-18T07:49:10;9.73;;;6.78;;
55015;SDS011;40919;43.236;21.590;2023-05-18T07:51:36;9.82;;;7.13;;
55015;SDS011;40919;43.236;21.590;2023-05-18T07:54:02;8.05;;;6.13;;
55015;SDS011;40919;43.236;21.590;2023-05-18T07:56:29;8.02;;;6.30;;
55015;SDS011;40919;43.236;21.590;2023-05-18T07:58:55;9.32;;;6.72;;
55015;SDS011;40919;43.236;21.590;2023-05-18T08:01:21;10.05;;;8.10;;
55015;SDS011;40919;43.236;21.590;2023-05-18T08:03:51;12.02;;;10.70;;
55015;SDS011;40919;43.236;21.590;2023-05-18T08:06:18;12.23;;;10.18;;
55015;SDS011;40919;43.236;21.590;2023-05-18T08:08:45;14.32;;;12.93;;
55015;SDS011;40919;43.236;21.590;2023-05-18T08:11:11;9.30;;;6.60;;
55015;SDS011;40919;43.236;21.590;2023-05-18T08:13:37;7.22;;;5.82;;
55015;SDS011;40919;43.236;21.590;2023-05-18T08:16:03;6.10;;;5.40;;
55015;SDS011;40919;43.236;21.590;2023-05-18T08:18:29;6.78;;;6.05;;
55015;SDS011;40919;43.236;21.590;2023-05-18T08:20:55;8.02;;;6.30;;
55015;SDS011;40919;43.236;21.590;2023-05-18T08:23:22;9.13;;;6.68;;
55015;SDS011;40919;43.236;21.590;2023-05-18T08:25:48;8.68;;;6.85;;
55015;SDS011;40919;43.236;21.590;2023-05-18T08:28:14;8.75;;;7.82;;
55015;SDS011;40919;43.236;21.590;2023-05-18T08:30:40;13.40;;;7.93;;
55015;SDS011;40919;43.236;21.590;2023-05-18T08:33:06;7.85;;;7.03;;
55015;SDS011;40919;43.236;21.590;2023-05-18T08:35:33;9.35;;;6.97;;
55015;SDS011;40919;43.236;21.590;2023-05-18T08:37:59;7.20;;;6.50;;
55015;SDS011;40919;43.236;21.590;2023-05-18T08:40:28;8.35;;;6.88;;
55015;SDS011;40919;43.236;21.590;2023-05-18T08:43:10;10.45;;;8.10;;
55015;SDS011;40919;43.236;21.590;2023-05-18T08:48:45;8.75;;;7.57;;
55015;SDS011;40919;43.236;21.590;2023-05-18T08:51:16;9.10;;;7.38;;
55015;SDS011;40919;43.236;21.590;2023-05-18T08:53:45;8.48;;;6.85;;
55015;SDS011;40919;43.236;21.590;2023-05-18T08:56:19;10.63;;;7.65;;
55015;SDS011;40919;43.236;21.590;2023-05-18T08:58:49;10.48;;;8.75;;
55015;SDS011;40919;43.236;21.590;2023-05-18T09:01:16;9.43;;;8.40;;
55015;SDS011;40919;43.236;21.590;2023-05-18T09:03:43;8.05;;;5.40;;
55015;SDS011;40919;43.236;21.590;2023-05-18T09:06:13;8.25;;;4.38;;
55015;SDS011;40919;43.236;21.590;2023-05-18T09:08:40;9.23;;;7.47;;
55015;SDS011;40919;43.236;21.590;2023-05-18T09:11:06;9.10;;;6.00;;
55015;SDS011;40919;43.236;21.590;2023-05-18T09:13:33;6.47;;;5.13;;
55015;SDS011;40919;43.236;21.590;2023-05-18T09:15:59;7.28;;;5.70;;
55015;SDS011;40919;43.236;21.590;2023-05-18T09:18:24;5.90;;;4.00;;
55015;SDS011;40919;43.236;21.590;2023-05-18T09:20:50;7.32;;;4.93;;
55015;SDS011;40919;43.236;21.590;2023-05-18T09:23:16;7.57;;;4.78;;
55015;SDS011;40919;43.236;21.590;2023-05-18T09:25:43;7.63;;;5.00;;
55015;SDS011;40919;43.236;21.590;2023-05-18T09:28:13;6.65;;;4.10;;
55015;SDS011;40919;43.236;21.590;2023-05-18T09:30:49;6.32;;;3.70;;
55015;SDS011;40919;43.236;21.590;2023-05-18T09:33:17;6.10;;;3.70;;
55015;SDS011;40919;43.236;21.590;2023-05-18T09:35:46;5.97;;;3.42;;
55015;SDS011;40919;43.236;21.590;2023-05-18T09:38:14;5.03;;;3.55;;
55015;SDS011;40919;43.236;21.590;2023-05-18T09:40:45;4.47;;;3.28;;
55015;SDS011;40919;43.236;21.590;2023-05-18T09:43:18;3.97;;;2.47;;
55015;SDS011;40919;43.236;21.590;2023-05-18T09:45:45;7.95;;;2.80;;
55015;SDS011;40919;43.236;21.590;2023-05-18T09:48:15;4.80;;;2.90;;
55015;SDS011;40919;43.236;21.590;2023-05-18T09:50:44;3.70;;;2.63;;
55015;SDS011;40919;43.236;21.590;2023-05-18T09:53:10;4.28;;;2.80;;
55015;SDS011;40919;43.236;21.590;2023-05-18T09:55:43;4.93;;;3.60;;
55015;SDS011;40919;43.236;21.590;2023-05-18T09:58:13;4.35;;;2.83;;
55015;SDS011;40919;43.236;21.590;2023-05-18T10:00:40;4.18;;;2.58;;
55015;SDS011;40919;43.236;21.590;2023-05-18T10:03:17;6.00;;;3.47;;
55015;SDS011;40919;43.236;21.590;2023-05-18T10:05:45;5.10;;;3.78;;
55015;SDS011;40919;43.236;21.590;2023-05-18T10:08:12;4.18;;;3.00;;
55015;SDS011;40919;43.236;21.590;2023-05-18T10:10:43;4.60;;;2.63;;
55015;SDS011;40919;43.236;21.590;2023-05-18T10:13:14;5.25;;;2.25;;
55015;SDS011;40919;43.236;21.590;2023-05-18T10:15:51;6.15;;;2.50;;
55015;SDS011;40919;43.236;21.590;2023-05-18T10:18:30;5.15;;;2.65;;
55015;SDS011;40919;43.236;21.590;2023-05-18T10:20:58;4.20;;;2.40;;
55015;SDS011;40919;43.236;21.590;2023-05-18T10:23:27;3.55;;;1.85;;
55015;SDS011;40919;43.236;21.590;2023-05-18T10:25:56;5.70;;;3.20;;
55015;SDS011;40919;43.236;21.590;2023-05-18T10:28:26;5.97;;;2.50;;
55015;SDS011;40919;43.236;21.590;2023-05-18T10:30:58;4.07;;;2.08;;
55015;SDS011;40919;43.236;21.590;2023-05-18T10:33:25;5.32;;;2.38;;
55015;SDS011;40919;43.236;21.590;2023-05-18T10:35:53;5.68;;;2.50;;
55015;SDS011;40919;43.236;21.590;2023-05-18T10:38:24;4.18;;;2.45;;
55015;SDS011;40919;43.236;21.590;2023-05-18T10:44:23;3.38;;;2.08;;
55015;SDS011;40919;43.236;21.590;2023-05-18T10:46:53;10.15;;;4.03;;
55015;SDS011;40919;43.236;21.590;2023-05-18T10:49:25;3.78;;;2.70;;
55015;SDS011;40919;43.236;21.590;2023-05-18T10:51:54;5.53;;;2.35;;
55015;SDS011;40919;43.236;21.590;2023-05-18T10:54:21;4.20;;;2.50;;
55015;SDS011;40919;43.236;21.590;2023-05-18T10:56:49;5.97;;;3.10;;
55015;SDS011;40919;43.236;21.590;2023-05-18T10:59:17;6.65;;;3.40;;
55015;SDS011;40919;43.236;21.590;2023-05-18T11:01:44;5.38;;;3.78;;
55015;SDS011;40919;43.236;21.590;2023-05-18T11:04:13;8.15;;;5.10;;
55015;SDS011;40919;43.236;21.590;2023-05-18T11:06:39;6.82;;;4.78;;
55015;SDS011;40919;43.236;21.590;2023-05-18T11:09:05;8.10;;;6.60;;
55015;SDS011;40919;43.236;21.590;2023-05-18T11:11:50;7.45;;;5.55;;
55015;SDS011;40919;43.236;21.590;2023-05-18T11:14:25;7.25;;;5.70;;
55015;SDS011;40919;43.236;21.590;2023-05-18T11:16:52;7.38;;;6.30;;
55015;SDS011;40919;43.236;21.590;2023-05-18T11:19:18;9.63;;;7.28;;
55015;SDS011;40919;43.236;21.590;2023-05-18T11:24:22;8.65;;;7.75;;
55015;SDS011;40919;43.236;21.590;2023-05-18T11:27:01;12.27;;;7.60;;
55015;SDS011;40919;43.236;21.590;2023-05-18T11:29:39;8.98;;;8.02;;
55015;SDS011;40919;43.236;21.590;2023-05-18T11:32:22;9.02;;;8.05;;
55015;SDS011;40919;43.236;21.590;2023-05-18T11:34:55;9.18;;;7.30;;
55015;SDS011;40919;43.236;21.590;2023-05-18T11:40:43;13.02;;;8.50;;
55015;SDS011;40919;43.236;21.590;2023-05-18T11:43:08;8.55;;;7.45;;
55015;SDS011;40919;43.236;21.590;2023-05-18T11:45:34;8.07;;;6.82;;
55015;SDS011;40919;43.236;21.590;2023-05-18T11:48:15;8.23;;;6.55;;
55015;SDS011;40919;43.236;21.590;2023-05-18T11:50:45;15.10;;;6.80;;
55015;SDS011;40919;43.236;21.590;2023-05-18T11:53:14;8.60;;;6.45;;
55015;SDS011;40919;43.236;21.590;2023-05-18T11:55:41;13.32;;;6.80;;
55015;SDS011;40919;43.236;21.590;2023-05-18T11:58:07;9.02;;;7.15;;
55015;SDS011;40919;43.236;21.590;2023-05-18T12:00:36;10.85;;;7.22;;
55015;SDS011;40919;43.236;21.590;2023-05-18T12:03:03;6.65;;;5.45;;
55015;SDS011;40919;43.236;21.590;2023-05-18T12:05:30;7.78;;;5.18;;
55015;SDS011;40919;43.236;21.590;2023-05-18T12:08:04;7.28;;;4.93;;
55015;SDS011;40919;43.236;21.590;2023-05-18T12:10:58;5.60;;;4.47;;
55015;SDS011;40919;43.236;21.590;2023-05-18T12:13:30;6.60;;;5.15;;
55015;SDS011;40919;43.236;21.590;2023-05-18T12:15:58;7.30;;;5.82;;
55015;SDS011;40919;43.236;21.590;2023-05-18T12:18:31;8.13;;;6.25;;
55015;SDS011;40919;43.236;21.590;2023-05-18T12:21:03;8.10;;;6.53;;
55015;SDS011;40919;43.236;21.590;2023-05-18T12:27:29;6.85;;;5.40;;
55015;SDS011;40919;43.236;21.590;2023-05-18T12:30:27;8.73;;;6.60;;
55015;SDS011;40919;43.236;21.590;2023-05-18T12:35:32;8.90;;;6.75;;
55015;SDS011;40919;43.236;21.590;2023-05-18T12:37:58;9.57;;;6.90;;
55015;SDS011;40919;43.236;21.590;2023-05-18T12:40:40;7.68;;;6.47;;
55015;SDS011;40919;43.236;21.590;2023-05-18T12:46:28;11.27;;;8.75;;
55015;SDS011;40919;43.236;21.590;2023-05-18T12:49:25;8.25;;;6.80;;
55015;SDS011;40919;43.236;21.590;2023-05-18T12:52:07;8.68;;;7.72;;
55015;SDS011;40919;43.236;21.590;2023-05-18T12:54:51;10.82;;;8.48;;
55015;SDS011;40919;43.236;21.590;2023-05-18T12:57:24;10.95;;;9.13;;
55015;SDS011;40919;43.236;21.590;2023-05-18T13:00:10;12.55;;;7.80;;
55015;SDS011;40919;43.236;21.590;2023-05-18T13:03:19;10.07;;;7.80;;
55015;SDS011;40919;43.236;21.590;2023-05-18T13:06:29;8.50;;;7.18;;
55015;SDS011;40919;43.236;21.590;2023-05-18T13:09:13;12.13;;;8.35;;
55015;SDS011;40919;43.236;21.590;2023-05-18T13:11:51;8.80;;;7.68;;
55015;SDS011;40919;43.236;21.590;2023-05-18T13:14:35;12.45;;;8.85;;
55015;SDS011;40919;43.236;21.590;2023-05-18T13:17:20;13.35;;;8.73;;
55015;SDS011;40919;43.236;21.590;2023-05-18T13:19:55;10.55;;;8.10;;
55015;SDS011;40919;43.236;21.590;2023-05-18T13:22:29;13.45;;;9.15;;
55015;SDS011;40919;43.236;21.590;2023-05-18T13:24:55;10.73;;;8.80;;
55015;SDS011;40919;43.236;21.590;2023-05-18T13:27:22;9.25;;;7.47;;
55015;SDS011;40919;43.236;21.590;2023-05-18T13:29:49;9.77;;;7.35;;
55015;SDS011;40919;43.236;21.590;2023-05-18T13:32:16;10.85;;;8.48;;
55015;SDS011;40919;43.236;21.590;2023-05-18T13:34:43;9.25;;;7.53;;
55015;SDS011;40919;43.236;21.590;2023-05-18T13:37:10;8.23;;;6.28;;
55015;SDS011;40919;43.236;21.590;2023-05-18T13:39:39;9.73;;;8.20;;
55015;SDS011;40919;43.236;21.590;2023-05-18T13:42:05;10.50;;;8.20;;
55015;SDS011;40919;43.236;21.590;2023-05-18T13:44:32;8.90;;;7.97;;
55015;SDS011;40919;43.236;21.590;2023-05-18T13:46:59;9.88;;;7.93;;
55015;SDS011;40919;43.236;21.590;2023-05-18T13:49:25;9.65;;;7.70;;
55015;SDS011;40919;43.236;21.590;2023-05-18T13:51:51;8.65;;;6.97;;
55015;SDS011;40919;43.236;21.590;2023-05-18T13:54:17;10.77;;;8.23;;
55015;SDS011;40919;43.236;21.590;2023-05-18T13:56:47;12.00;;;8.38;;
55015;SDS011;40919;43.236;21.590;2023-05-18T13:59:19;8.82;;;6.93;;
55015;SDS011;40919;43.236;21.590;2023-05-18T14:01:46;9.70;;;7.88;;
55015;SDS011;40919;43.236;21.590;2023-05-18T14:04:12;9.18;;;5.68;;
55015;SDS011;40919;43.236;21.590;2023-05-18T14:06:38;9.38;;;5.63;;
55015;SDS011;40919;43.236;21.590;2023-05-18T14:09:04;8.70;;;6.20;;
55015;SDS011;40919;43.236;21.590;2023-05-18T14:11:32;8.35;;;5.90;;
55015;SDS011;40919;43.236;21.590;2023-05-18T14:14:00;9.88;;;6.55;;
55015;SDS011;40919;43.236;21.590;2023-05-18T14:16:28;8.98;;;6.68;;
55015;SDS011;40919;43.236;21.590;2023-05-18T14:18:54;8.45;;;6.65;;
55015;SDS011;40919;43.236;21.590;2023-05-18T14:21:22;10.27;;;6.47;;
55015;SDS011;40919;43.236;21.590;2023-05-18T14:23:48;8.48;;;6.38;;
55015;SDS011;40919;43.236;21.590;2023-05-18T14:26:16;10.82;;;6.82;;
55015;SDS011;40919;43.236;21.590;2023-05-18T14:28:49;8.57;;;5.57;;
55015;SDS011;40919;43.236;21.590;2023-05-18T14:31:16;7.75;;;5.80;;
55015;SDS011;40919;43.236;21.590;2023-05-18T14:33:42;8.18;;;6.20;;
55015;SDS011;40919;43.236;21.590;2023-05-18T14:36:39;8.52;;;6.43;;
55015;SDS011;40919;43.236;21.590;2023-05-18T14:39:05;7.63;;;6.53;;
55015;SDS011;40919;43.236;21.590;2023-05-18T14:41:36;10.38;;;7.93;;
55015;SDS011;40919;43.236;21.590;2023-05-18T14:44:47;11.50;;;8.88;;
55015;SDS011;40919;43.236;21.590;2023-05-18T14:47:17;10.13;;;8.55;;
55015;SDS011;40919;43.236;21.590;2023-05-18T14:50:21;13.18;;;8.60;;
55015;SDS011;40919;43.236;21.590;2023-05-18T14:53:15;12.38;;;8.57;;
55015;SDS011;40919;43.236;21.590;2023-05-18T14:55:42;13.52;;;9.85;;
55015;SDS011;40919;43.236;21.590;2023-05-18T14:58:38;13.38;;;9.45;;
55015;SDS011;40919;43.236;21.590;2023-05-18T15:01:06;10.77;;;8.57;;
55015;SDS011;40919;43.236;21.590;2023-05-18T15:03:35;11.73;;;8.60;;
55015;SDS011;40919;43.236;21.590;2023-05-18T15:06:03;12.75;;;9.40;;
55015;SDS011;40919;43.236;21.590;2023-05-18T15:08:34;11.90;;;8.25;;
55015;SDS011;40919;43.236;21.590;2023-05-18T15:11:07;13.07;;;10.13;;
55015;SDS011;40919;43.236;21.590;2023-05-18T15:13:33;12.35;;;9.85;;
55015;SDS011;40919;43.236;21.590;2023-05-18T15:15:59;12.35;;;8.88;;
55015;SDS011;40919;43.236;21.590;2023-05-18T15:18:26;11.55;;;8.15;;
55015;SDS011;40919;43.236;21.590;2023-05-18T15:20:53;12.55;;;9.40;;